Time;durP1;ratioP1;P1;durP2;ratioP2;P2;SDS_P1;SDS_P2;PMS_P1;PMS_P2;Temp;Humidity;BMP_temperature;BMP_pressure;BME280_temperature;BME280_humidity;BME280_pressure;Samples;Min_cycle;Max_cycle;Signal;HPM_P1;HPM_P2
2023/06/02 00:01:07;;;;;;;14.55;3.08;;;11.40;99.90;;;;;;4912250;29;20059;-73
2023/06/02 00:03:34;;;;;;;19.23;3.83;;;11.50;99.90;;;;;;4912291;29;20052;-73
2023/06/02 00:06:09;;;;;;;19.63;3.78;;;11.50;99.90;;;;;;4911726;29;20048;-73
2023/06/02 00:08:40;;;;;;;17.92;3.92;;;11.40;99.90;;;;;;4905357;29;20068;-73
2023/06/02 00:11:06;;;;;;;18.15;3.13;;;11.40;99.90;;;;;;4913907;29;20052;-73
2023/06/02 00:13:32;;;;;;;18.23;3.30;;;11.30;99.90;;;;;;4886343;29;20132;-73
2023/06/02 00:15:58;;;;;;;22.30;3.90;;;11.20;99.90;;;;;;4915631;29;20045;-73
2023/06/02 00:18:25;;;;;;;17.75;3.55;;;11.30;99.90;;;;;;4896844;29;20063;-73
2023/06/02 00:20:51;;;;;;;15.10;3.20;;;11.10;99.90;;;;;;4914305;29;20502;-73
2023/06/02 00:23:18;;;;;;;15.63;3.38;;;11.20;99.90;;;;;;4918194;29;20193;-73
2023/06/02 00:25:44;;;;;;;20.23;3.72;;;11.20;99.90;;;;;;4896610;29;20131;-74
2023/06/02 00:28:10;;;;;;;14.30;3.00;;;11.10;99.90;;;;;;4921660;29;20183;-73
2023/06/02 00:30:36;;;;;;;17.15;3.30;;;11.00;99.90;;;;;;4924697;29;20059;-73
2023/06/02 00:33:02;;;;;;;16.98;3.40;;;11.00;99.90;;;;;;4940869;29;20039;-73
2023/06/02 00:35:28;;;;;;;19.30;3.92;;;11.10;99.90;;;;;;4919001;29;20051;-73
2023/06/02 00:37:54;;;;;;;19.88;3.38;;;11.10;99.90;;;;;;4935473;29;20048;-73
2023/06/02 00:40:21;;;;;;;19.27;3.42;;;11.00;99.90;;;;;;4908429;29;20044;-73
2023/06/02 00:42:49;;;;;;;22.03;3.83;;;11.10;99.90;;;;;;4919287;29;20044;-74
2023/06/02 00:45:15;;;;;;;19.20;3.88;;;10.90;99.90;;;;;;4918599;29;21231;-73
2023/06/02 00:47:41;;;;;;;23.58;4.05;;;10.90;99.90;;;;;;4933831;29;20528;-73
2023/06/02 00:50:08;;;;;;;19.00;3.63;;;10.90;99.90;;;;;;4921351;29;20052;-73
2023/06/02 00:52:33;;;;;;;15.88;3.10;;;11.00;99.90;;;;;;4917961;29;20048;-73
2023/06/02 00:55:01;;;;;;;16.70;3.58;;;11.10;99.90;;;;;;4922658;29;20059;-73
2023/06/02 00:57:28;;;;;;;16.35;3.90;;;11.00;99.90;;;;;;4901764;29;20080;-74
2023/06/02 00:59:57;;;;;;;16.63;2.88;;;10.90;99.90;;;;;;4916771;29;20048;-73
2023/06/02 01:02:23;;;;;;;21.00;3.53;;;11.10;99.90;;;;;;4918967;29;20776;-73
2023/06/02 01:04:50;;;;;;;19.40;3.47;;;11.10;99.90;;;;;;4918425;29;20052;-73
2023/06/02 01:07:23;;;;;;;19.08;3.10;;;11.10;99.90;;;;;;4920062;29;20052;-73
2023/06/02 01:09:57;;;;;;;19.50;3.58;;;11.20;99.90;;;;;;4938377;29;20052;-73
2023/06/02 01:12:28;;;;;;;20.75;3.50;;;11.10;99.90;;;;;;4918512;29;20063;-73
2023/06/02 01:14:54;;;;;;;14.27;2.90;;;11.10;99.90;;;;;;4933990;29;20040;-73
2023/06/02 01:17:24;;;;;;;18.30;3.13;;;11.10;99.90;;;;;;4915913;29;20095;-73
2023/06/02 01:19:51;;;;;;;15.55;3.30;;;11.10;99.90;;;;;;4925578;29;20071;-73
2023/06/02 01:22:19;;;;;;;18.52;3.53;;;11.10;99.90;;;;;;4917398;29;20059;-73
2023/06/02 01:24:48;;;;;;;;;;;11.20;99.90;;;;;;4914894;29;20082;-74
2023/06/02 01:27:14;;;;;;;;;;;11.10;99.90;;;;;;4941849;29;19911;-73
2023/06/02 01:29:39;;;;;;;14.02;2.92;;;11.20;99.90;;;;;;4942679;29;19929;-73
2023/06/02 01:32:19;;;;;;;17.33;3.92;;;11.20;99.90;;;;;;4931994;29;20056;-73
2023/06/02 01:35:18;;;;;;;24.40;4.65;;;11.20;99.90;;;;;;4921009;29;20127;-74
2023/06/02 01:37:47;;;;;;;14.35;3.28;;;11.20;99.90;;;;;;4905737;29;20048;-74
2023/06/02 01:40:13;;;;;;;22.30;4.28;;;11.10;99.90;;;;;;4898928;29;20044;-73
2023/06/02 01:42:39;;;;;;;17.23;3.55;;;11.20;99.90;;;;;;4935951;29;20062;-73
2023/06/02 01:45:07;;;;;;;22.13;3.97;;;11.20;99.90;;;;;;4922298;29;20051;-74
2023/06/02 01:47:32;;;;;;;17.05;3.97;;;11.10;99.90;;;;;;4921693;29;20074;-73
2023/06/02 01:49:58;;;;;;;19.92;3.50;;;11.00;99.90;;;;;;4939005;29;20358;-73
2023/06/02 01:52:24;;;;;;;13.48;3.17;;;11.00;99.90;;;;;;4922360;29;20110;-73
2023/06/02 01:54:50;;;;;;;23.55;3.33;;;11.00;99.90;;;;;;4921716;29;20048;-73
2023/06/02 01:57:16;;;;;;;19.58;3.75;;;11.10;99.90;;;;;;4921964;29;20060;-73
2023/06/02 01:59:42;;;;;;;18.08;3.20;;;11.00;99.90;;;;;;4936091;29;20461;-73
2023/06/02 02:02:08;;;;;;;16.08;3.83;;;11.00;99.90;;;;;;4906056;29;20083;-73
2023/06/02 02:04:34;;;;;;;15.93;3.50;;;11.10;99.90;;;;;;4935807;29;20130;-73
2023/06/02 02:07:03;;;;;;;18.55;3.20;;;11.20;99.90;;;;;;4937785;29;20123;-73
2023/06/02 02:09:29;;;;;;;17.20;3.83;;;11.20;99.90;;;;;;4925337;29;20047;-73
2023/06/02 02:11:55;;;;;;;18.23;3.80;;;11.20;99.90;;;;;;4916051;29;20449;-73
2023/06/02 02:14:21;;;;;;;15.05;4.35;;;11.20;99.90;;;;;;4941864;29;20490;-73
2023/06/02 02:16:49;;;;;;;19.73;3.95;;;11.10;99.90;;;;;;4941017;29;20356;-73
2023/06/02 02:19:16;;;;;;;14.73;3.90;;;11.10;99.90;;;;;;4903513;29;20054;-73
2023/06/02 02:21:42;;;;;;;13.13;3.00;;;11.10;99.90;;;;;;4922117;29;20102;-74
2023/06/02 02:24:08;;;;;;;15.13;3.10;;;11.20;99.90;;;;;;4935841;29;20110;-73
2023/06/02 02:26:34;;;;;;;21.20;3.55;;;11.10;99.90;;;;;;4919804;29;20043;-73
2023/06/02 02:28:59;;;;;;;16.20;3.63;;;11.10;99.90;;;;;;4923764;29;20384;-74
2023/06/02 02:31:27;;;;;;;20.67;4.20;;;11.20;99.90;;;;;;4936890;29;20058;-73
2023/06/02 02:33:53;;;;;;;17.60;3.75;;;11.10;99.90;;;;;;4934497;29;20086;-73
2023/06/02 02:36:19;;;;;;;16.95;3.47;;;11.10;99.90;;;;;;4940658;29;20134;-74
2023/06/02 02:38:45;;;;;;;14.73;3.30;;;11.10;99.90;;;;;;4917414;29;20717;-73
2023/06/02 02:41:11;;;;;;;14.90;3.72;;;11.00;99.90;;;;;;4922839;29;20130;-73
2023/06/02 02:43:36;;;;;;;13.25;3.03;;;11.00;99.90;;;;;;4903689;29;20083;-73
2023/06/02 02:46:02;;;;;;;17.88;3.33;;;11.00;99.90;;;;;;4923770;29;20425;-73
2023/06/02 02:48:28;;;;;;;13.13;3.28;;;11.00;99.90;;;;;;4934690;29;20110;-73
2023/06/02 02:50:54;;;;;;;14.13;3.42;;;11.10;99.90;;;;;;4904112;29;20039;-73
2023/06/02 02:53:20;;;;;;;19.27;4.38;;;11.10;99.90;;;;;;4919483;29;20074;-73
2023/06/02 02:55:46;;;;;;;16.60;3.63;;;11.20;99.90;;;;;;4905454;29;20047;-73
2023/06/02 02:58:12;;;;;;;17.65;3.90;;;11.20;99.90;;;;;;4919602;29;20051;-73
2023/06/02 03:00:39;;;;;;;22.17;3.95;;;11.20;99.90;;;;;;4934431;29;20059;-73
2023/06/02 03:03:05;;;;;;;10.32;2.90;;;11.20;99.90;;;;;;4920316;29;20063;-73
2023/06/02 03:05:34;;;;;;;23.05;4.75;;;11.10;99.90;;;;;;4941220;29;20362;-73
2023/06/02 03:08:03;;;;;;;18.95;3.50;;;11.10;99.90;;;;;;4914039;29;20047;-74
2023/06/02 03:10:29;;;;;;;20.17;3.65;;;11.00;99.90;;;;;;4922650;29;20441;-73
2023/06/02 03:12:55;;;;;;;14.35;3.00;;;11.10;99.90;;;;;;4897597;29;20049;-73
2023/06/02 03:15:20;;;;;;;12.50;2.72;;;11.10;99.90;;;;;;4934171;29;20098;-73
2023/06/02 03:17:50;;;;;;;17.45;3.92;;;11.10;99.90;;;;;;4919260;29;20402;-73
2023/06/02 03:20:17;;;;;;;15.85;3.72;;;11.10;99.90;;;;;;4943427;29;20075;-73
2023/06/02 03:22:43;;;;;;;22.15;4.38;;;11.00;99.90;;;;;;4933176;29;20122;-74
2023/06/02 03:25:09;;;;;;;20.65;4.07;;;11.00;99.90;;;;;;4934748;29;20039;-73
2023/06/02 03:27:35;;;;;;;12.57;3.33;;;11.00;99.90;;;;;;4919316;29;20373;-73
2023/06/02 03:30:02;;;;;;;15.43;3.97;;;11.00;99.90;;;;;;4922356;29;20102;-73
2023/06/02 03:32:28;;;;;;;14.82;3.65;;;11.00;99.90;;;;;;4918933;29;20079;-73
2023/06/02 03:34:54;;;;;;;18.00;3.65;;;10.90;99.90;;;;;;4936568;29;20473;-73
2023/06/02 03:37:19;;;;;;;19.88;3.58;;;10.80;99.90;;;;;;4922480;29;20043;-73
2023/06/02 03:39:45;;;;;;;18.55;3.85;;;10.80;99.90;;;;;;4917302;29;20039;-73
2023/06/02 03:42:11;;;;;;;15.23;4.10;;;10.80;99.90;;;;;;4919411;29;20072;-73
2023/06/02 03:44:36;;;;;;;19.75;4.45;;;10.70;99.90;;;;;;4918367;29;20054;-73
2023/06/02 03:47:02;;;;;;;19.20;4.07;;;10.90;99.90;;;;;;4901544;29;20048;-73
2023/06/02 03:49:29;;;;;;;13.75;3.08;;;10.80;99.90;;;;;;4919388;29;20047;-73
2023/06/02 03:51:56;;;;;;;18.75;4.10;;;10.80;99.90;;;;;;4920790;29;20050;-74
2023/06/02 03:54:22;;;;;;;16.45;3.25;;;10.90;99.90;;;;;;4923317;29;20043;-73
2023/06/02 03:56:49;;;;;;;16.85;3.50;;;10.90;99.90;;;;;;4935534;29;20091;-72
2023/06/02 03:59:15;;;;;;;16.05;3.13;;;10.90;99.90;;;;;;4919214;29;20127;-72
2023/06/02 04:01:41;;;;;;;24.85;3.88;;;10.90;99.90;;;;;;4917812;29;20044;-72
2023/06/02 04:04:11;;;;;;;15.20;3.30;;;10.90;99.90;;;;;;4919640;29;20047;-72
2023/06/02 04:06:41;;;;;;;18.90;3.88;;;10.90;99.90;;;;;;4922413;29;20473;-72
2023/06/02 04:09:11;;;;;;;16.63;3.42;;;10.90;99.90;;;;;;4922270;29;20094;-72
2023/06/02 04:11:37;;;;;;;21.23;4.00;;;10.90;99.90;;;;;;4906899;29;20075;-73
2023/06/02 04:14:03;;;;;;;21.38;3.50;;;11.00;99.90;;;;;;4937899;29;20078;-74
2023/06/02 04:16:29;;;;;;;16.58;3.50;;;10.90;99.90;;;;;;4922189;29;20040;-72
2023/06/02 04:18:54;;;;;;;19.98;3.67;;;10.80;99.90;;;;;;4922331;29;20138;-72
2023/06/02 04:21:20;;;;;;;20.23;4.22;;;10.90;99.90;;;;;;4891229;29;20051;-72
2023/06/02 04:23:46;;;;;;;17.10;3.67;;;10.90;99.90;;;;;;4922648;29;20484;-73
2023/06/02 04:26:12;;;;;;;18.38;3.92;;;10.90;99.90;;;;;;4938921;29;20058;-72
2023/06/02 04:28:37;;;;;;;18.08;4.22;;;10.80;99.90;;;;;;4922265;29;20055;-73
2023/06/02 04:31:05;;;;;;;20.88;3.55;;;10.90;99.90;;;;;;4950711;29;20074;-73
2023/06/02 04:33:31;;;;;;;15.32;3.67;;;10.90;99.90;;;;;;4927190;29;20044;-73
2023/06/02 04:35:57;;;;;;;19.90;4.40;;;10.90;99.90;;;;;;4937602;29;20055;-73
2023/06/02 04:38:23;;;;;;;19.90;4.55;;;10.90;99.90;;;;;;4922092;29;20051;-73
2023/06/02 04:40:50;;;;;;;19.15;4.25;;;10.90;99.90;;;;;;4925239;29;20102;-72
2023/06/02 04:43:16;;;;;;;18.10;4.17;;;10.90;99.90;;;;;;4923376;29;20266;-72
2023/06/02 04:45:43;;;;;;;18.35;3.70;;;10.90;99.90;;;;;;4940424;29;20139;-73
2023/06/02 04:48:10;;;;;;;18.20;3.63;;;10.80;99.90;;;;;;4935191;29;20084;-73
2023/06/02 04:50:36;;;;;;;26.20;5.05;;;10.90;99.90;;;;;;4937174;29;20503;-73
2023/06/02 04:53:02;;;;;;;22.38;4.07;;;10.90;99.90;;;;;;4891684;29;20453;-73
2023/06/02 04:55:28;;;;;;;19.10;4.40;;;11.00;99.90;;;;;;4921747;29;20054;-73
2023/06/02 04:57:53;;;;;;;21.17;4.32;;;11.00;99.90;;;;;;4936603;29;20051;-73
2023/06/02 05:00:19;;;;;;;22.15;4.72;;;11.00;99.90;;;;;;4939364;29;20062;-73
2023/06/02 05:02:45;;;;;;;18.77;4.60;;;11.00;99.90;;;;;;4923202;29;20075;-73
2023/06/02 05:05:11;;;;;;;28.38;4.10;;;11.00;99.90;;;;;;4921880;29;20082;-72
2023/06/02 05:07:37;;;;;;;18.67;4.13;;;10.90;99.90;;;;;;4924239;29;20484;-72
2023/06/02 05:10:03;;;;;;;20.00;4.82;;;11.00;99.90;;;;;;4919604;29;20130;-73
2023/06/02 05:12:30;;;;;;;21.20;4.22;;;11.00;99.90;;;;;;4921496;29;20484;-73
2023/06/02 05:14:56;;;;;;;16.42;4.13;;;10.90;99.90;;;;;;4934608;29;20051;-73
2023/06/02 05:17:23;;;;;;;21.52;4.72;;;10.70;99.90;;;;;;4929996;29;20055;-72
2023/06/02 05:19:53;;;;;;;20.25;4.65;;;10.80;99.90;;;;;;4893159;29;20047;-72
2023/06/02 05:22:19;;;;;;;22.08;4.05;;;10.90;99.90;;;;;;4936626;29;20115;-72
2023/06/02 05:24:45;;;;;;;25.45;5.00;;;11.00;99.90;;;;;;4920966;29;20094;-73
2023/06/02 05:27:11;;;;;;;16.52;3.95;;;10.80;99.90;;;;;;4938246;29;20505;-73
2023/06/02 05:29:36;;;;;;;23.35;4.95;;;10.90;99.90;;;;;;4942792;29;20176;-73
2023/06/02 05:32:02;;;;;;;18.85;4.20;;;10.90;99.90;;;;;;4916676;29;20381;-72
2023/06/02 05:34:28;;;;;;;19.13;4.72;;;11.00;99.90;;;;;;4921050;29;20052;-73
2023/06/02 05:36:54;;;;;;;22.98;5.55;;;11.10;99.90;;;;;;4924571;29;20048;-73
2023/06/02 05:39:21;;;;;;;20.90;5.43;;;11.00;99.90;;;;;;4941117;29;20056;-73
2023/06/02 05:41:47;;;;;;;23.70;4.95;;;11.00;99.90;;;;;;4939603;29;20369;-73
2023/06/02 05:44:13;;;;;;;25.08;5.13;;;10.90;99.90;;;;;;4925533;29;20051;-73
2023/06/02 05:46:40;;;;;;;19.30;4.72;;;10.90;99.90;;;;;;4942085;29;20048;-73
2023/06/02 05:49:06;;;;;;;23.98;5.85;;;10.90;99.90;;;;;;4941020;29;20291;-73
2023/06/02 05:51:31;;;;;;;19.02;4.60;;;11.10;99.90;;;;;;4905664;29;20082;-73
2023/06/02 05:53:57;;;;;;;21.65;5.07;;;11.00;99.90;;;;;;4919873;29;20051;-73
2023/06/02 05:56:23;;;;;;;23.08;5.28;;;10.80;99.90;;;;;;4894266;29;20050;-73
2023/06/02 05:58:49;;;;;;;20.48;5.03;;;10.80;99.90;;;;;;4905051;29;20062;-73
2023/06/02 06:01:15;;;;;;;24.42;5.38;;;10.80;99.90;;;;;;4916441;29;20520;-73
2023/06/02 06:03:40;;;;;;;22.92;5.03;;;11.00;99.90;;;;;;4942188;29;20044;-73
2023/06/02 06:06:08;;;;;;;16.83;4.43;;;11.10;99.90;;;;;;4905348;29;20384;-74
2023/06/02 06:08:34;;;;;;;16.33;4.93;;;11.20;99.90;;;;;;4911297;29;20065;-74
2023/06/02 06:11:00;;;;;;;19.05;4.93;;;11.50;99.90;;;;;;4923825;29;20047;-74
2023/06/02 06:13:26;;;;;;;19.40;5.90;;;11.60;99.90;;;;;;4923642;29;20086;-74
2023/06/02 06:15:52;;;;;;;16.98;4.65;;;11.70;99.90;;;;;;4904779;29;20576;-74
2023/06/02 06:18:19;;;;;;;20.30;4.97;;;11.80;99.90;;;;;;4919728;29;20050;-74
2023/06/02 06:20:45;;;;;;;24.73;5.57;;;11.90;99.90;;;;;;4940844;29;20138;-74
2023/06/02 06:23:14;;;;;;;25.75;5.00;;;11.90;99.90;;;;;;4917095;29;20048;-74
2023/06/02 06:25:40;;;;;;;21.77;5.10;;;11.90;99.90;;;;;;4922162;29;20099;-74
2023/06/02 06:28:07;;;;;;;37.13;6.80;;;12.00;99.90;;;;;;4914602;29;20585;-74
2023/06/02 06:30:32;;;;;;;21.10;4.97;;;12.10;99.90;;;;;;4913549;29;20044;-74
2023/06/02 06:32:59;;;;;;;17.73;5.07;;;12.10;99.90;;;;;;4906883;29;20669;-74
2023/06/02 06:35:25;;;;;;;22.77;4.72;;;12.20;99.90;;;;;;4913976;29;20051;-74
2023/06/02 06:37:51;;;;;;;15.93;4.22;;;12.30;99.90;;;;;;4913238;29;20403;-74
2023/06/02 06:40:18;;;;;;;20.63;5.05;;;12.40;99.90;;;;;;4900592;29;20088;-74
2023/06/02 06:42:44;;;;;;;18.63;5.03;;;12.50;99.90;;;;;;4916927;29;20534;-73
2023/06/02 06:45:10;;;;;;;18.30;5.32;;;12.50;99.90;;;;;;4912335;29;20164;-74
2023/06/02 06:47:36;;;;;;;20.13;3.92;;;12.50;99.90;;;;;;4922068;29;20052;-74
2023/06/02 06:50:02;;;;;;;19.65;5.32;;;12.60;99.90;;;;;;4897654;29;20074;-76
2023/06/02 06:52:27;;;;;;;17.70;5.15;;;12.60;99.90;;;;;;4896334;29;20048;-73
2023/06/02 06:54:53;;;;;;;14.63;4.22;;;12.60;99.90;;;;;;4919463;29;20131;-73
2023/06/02 06:57:19;;;;;;;17.80;4.32;;;12.70;99.90;;;;;;4911698;29;20048;-75
2023/06/02 06:59:45;;;;;;;21.15;5.85;;;12.80;99.90;;;;;;4911062;29;20071;-74
2023/06/02 07:02:11;;;;;;;17.70;4.70;;;12.80;99.90;;;;;;4901980;29;20102;-73
2023/06/02 07:04:37;;;;;;;21.98;4.70;;;12.80;99.90;;;;;;4918024;29;20481;-74
2023/06/02 07:07:03;;;;;;;16.88;4.57;;;12.90;99.90;;;;;;4913083;29;20482;-74
2023/06/02 07:09:30;;;;;;;18.10;4.68;;;13.00;99.90;;;;;;4912439;29;20343;-74
2023/06/02 07:11:57;;;;;;;18.75;5.13;;;13.00;99.90;;;;;;4882421;29;20059;-74
2023/06/02 07:14:23;;;;;;;20.77;4.78;;;13.00;99.90;;;;;;4919419;29;20067;-74
2023/06/02 07:16:54;;;;;;;16.60;4.30;;;12.90;99.90;;;;;;4902828;29;20171;-74
2023/06/02 07:19:23;;;;;;;13.52;4.05;;;12.90;99.90;;;;;;4882109;29;20048;-74
2023/06/02 07:21:51;;;;;;;15.93;4.47;;;13.00;99.90;;;;;;4894900;29;20044;-74
2023/06/02 07:24:17;;;;;;;15.55;4.03;;;13.10;99.90;;;;;;4913230;29;20524;-74
2023/06/02 07:26:43;;;;;;;20.60;5.65;;;13.10;99.90;;;;;;4911846;29;20044;-75
2023/06/02 07:29:09;;;;;;;25.95;4.88;;;13.10;99.90;;;;;;4914629;29;20589;-75
2023/06/02 07:31:35;;;;;;;15.82;4.53;;;13.10;99.90;;;;;;4921773;29;20123;-75
2023/06/02 07:34:01;;;;;;;19.58;4.40;;;13.20;99.90;;;;;;4914985;29;20128;-74
2023/06/02 07:36:27;;;;;;;17.30;4.40;;;13.20;99.90;;;;;;4935421;29;20040;-74
2023/06/02 07:38:52;;;;;;;16.42;3.53;;;13.30;99.90;;;;;;4901770;29;20048;-75
2023/06/02 07:41:18;;;;;;;14.00;3.50;;;13.40;99.90;;;;;;4921799;29;20083;-74
2023/06/02 07:43:45;;;;;;;16.38;4.82;;;13.50;99.90;;;;;;4931957;29;20135;-75
2023/06/02 07:46:11;;;;;;;15.55;4.70;;;13.60;99.90;;;;;;4916466;29;20048;-75
2023/06/02 07:48:37;;;;;;;16.80;3.78;;;13.60;99.90;;;;;;4915059;29;20122;-74
2023/06/02 07:51:03;;;;;;;11.18;4.05;;;13.60;99.90;;;;;;4906195;29;20545;-74
2023/06/02 07:53:29;;;;;;;12.27;4.20;;;13.70;99.90;;;;;;4899341;29;20409;-74
2023/06/02 07:55:56;;;;;;;20.70;4.65;;;13.60;99.90;;;;;;4899920;29;20044;-74
2023/06/02 07:58:21;;;;;;;12.95;4.13;;;13.70;99.90;;;;;;4930318;29;20115;-74
2023/06/02 08:00:48;;;;;;;15.65;3.55;;;13.80;99.90;;;;;;4937676;29;20055;-74
2023/06/02 08:03:14;;;;;;;18.35;4.97;;;13.70;99.90;;;;;;4900339;29;20080;-74
2023/06/02 08:05:40;;;;;;;13.48;3.90;;;13.70;99.90;;;;;;4936734;29;20048;-75
2023/06/02 08:08:06;;;;;;;17.77;5.07;;;13.70;99.90;;;;;;4930423;29;20469;-74
2023/06/02 08:10:31;;;;;;;14.98;4.72;;;13.70;99.90;;;;;;4916248;29;20173;-75
2023/06/02 08:12:57;;;;;;;12.05;4.10;;;13.80;99.90;;;;;;4918810;29;20044;-75
2023/06/02 08:15:23;;;;;;;15.10;4.20;;;13.80;99.90;;;;;;4918906;29;20040;-74
2023/06/02 08:17:49;;;;;;;19.13;4.75;;;13.90;99.90;;;;;;4926249;29;20056;-74
2023/06/02 08:20:16;;;;;;;18.13;4.72;;;13.90;99.90;;;;;;4940990;29;20430;-75
2023/06/02 08:22:44;;;;;;;22.88;5.47;;;14.00;99.90;;;;;;4915677;29;20056;-74
2023/06/02 08:25:12;;;;;;;12.15;3.58;;;14.10;99.90;;;;;;4931711;29;20131;-75
2023/06/02 08:27:38;;;;;;;13.13;3.40;;;14.10;99.90;;;;;;4923791;29;20516;-74
2023/06/02 08:30:08;;;;;;;16.67;4.45;;;14.20;99.90;;;;;;4936436;29;20096;-74
2023/06/02 08:32:34;;;;;;;16.35;4.65;;;14.20;99.90;;;;;;4921303;29;20468;-74
2023/06/02 08:35:01;;;;;;;13.52;4.10;;;14.20;99.90;;;;;;4919618;29;20055;-75
2023/06/02 08:37:27;;;;;;;17.23;4.18;;;14.00;99.90;;;;;;4922052;29;20357;-74
2023/06/02 08:39:53;;;;;;;14.00;4.32;;;14.10;99.90;;;;;;4919043;29;20515;-75
2023/06/02 08:42:19;;;;;;;20.30;4.32;;;14.10;99.90;;;;;;4936461;29;20055;-75
2023/06/02 08:44:45;;;;;;;13.85;3.75;;;14.20;99.90;;;;;;4918256;29;20151;-75
2023/06/02 08:47:11;;;;;;;16.50;3.85;;;14.20;99.90;;;;;;4903278;29;20043;-75
2023/06/02 08:49:45;;;;;;;18.85;4.45;;;14.30;99.90;;;;;;4933879;29;20048;-74
2023/06/02 08:52:22;;;;;;;15.80;4.28;;;14.50;99.90;;;;;;4921203;29;20051;-74
2023/06/02 08:54:49;;;;;;;11.45;3.60;;;14.50;99.90;;;;;;4924669;29;20115;-75
2023/06/02 08:57:16;;;;;;;11.68;3.72;;;14.60;99.90;;;;;;4925804;29;20047;-74
2023/06/02 08:59:43;;;;;;;15.10;4.00;;;14.60;99.90;;;;;;4891122;29;20075;-73
2023/06/02 09:02:09;;;;;;;13.30;3.55;;;14.80;99.90;;;;;;4927431;29;20055;-74
2023/06/02 09:04:35;;;;;;;15.60;3.90;;;14.90;99.90;;;;;;4920424;29;20163;-73
2023/06/02 09:07:16;;;;;;;13.45;4.07;;;14.90;99.90;;;;;;4924553;29;20118;-74
2023/06/02 09:09:44;;;;;;;11.85;3.45;;;15.00;99.90;;;;;;4906118;29;20146;-74
2023/06/02 09:12:10;;;;;;;16.77;3.95;;;15.10;99.90;;;;;;4922099;29;20119;-75
2023/06/02 09:14:36;;;;;;;14.13;3.55;;;15.10;99.90;;;;;;4921374;29;20481;-74
2023/06/02 09:17:02;;;;;;;15.18;3.80;;;15.10;99.90;;;;;;4925500;29;20118;-74
2023/06/02 09:19:47;;;;;;;18.23;3.92;;;15.10;99.90;;;;;;4946109;29;20147;-74
2023/06/02 09:22:14;;;;;;;15.10;3.70;;;15.10;99.90;;;;;;4932697;29;20079;-74
2023/06/02 09:24:40;;;;;;;13.68;3.63;;;15.10;99.90;;;;;;4929441;29;20058;-74
2023/06/02 09:27:07;;;;;;;13.95;3.75;;;15.20;99.90;;;;;;4937254;29;20043;-74
2023/06/02 09:29:37;;;;;;;13.90;3.65;;;15.20;99.90;;;;;;4921245;29;20063;-75
2023/06/02 09:32:04;;;;;;;15.85;4.03;;;15.30;99.90;;;;;;4920622;29;20051;-74
2023/06/02 09:34:37;;;;;;;16.10;3.28;;;15.30;99.90;;;;;;4940404;29;20046;-74
2023/06/02 09:37:10;;;;;;;10.05;3.53;;;15.30;99.90;;;;;;4921460;29;20048;-74
2023/06/02 09:39:43;;;;;;;17.92;4.20;;;15.40;99.90;;;;;;4892553;29;20082;-74
2023/06/02 09:42:11;;;;;;;15.70;3.42;;;15.50;99.90;;;;;;4920349;29;20057;-73
2023/06/02 09:44:38;;;;;;;12.30;2.97;;;15.50;99.90;;;;;;4927124;29;20071;-73
2023/06/02 09:47:25;;;;;;;13.77;3.38;;;15.60;99.90;;;;;;4924357;29;20075;-74
2023/06/02 09:49:52;;;;;;;20.63;3.55;;;15.60;99.90;;;;;;4912204;29;20043;-74
2023/06/02 09:52:19;;;;;;;13.57;3.13;;;15.70;99.90;;;;;;4927153;29;20084;-74
2023/06/02 09:54:47;;;;;;;15.38;3.30;;;15.60;99.90;;;;;;4929561;29;20058;-74
2023/06/02 09:57:12;;;;;;;9.68;3.20;;;15.70;99.90;;;;;;4923810;29;20397;-74
2023/06/02 09:59:40;;;;;;;13.70;3.60;;;15.70;99.90;;;;;;4918080;29;20058;-74
2023/06/02 10:02:09;;;;;;;11.95;3.40;;;15.80;99.90;;;;;;4920299;29;20055;-74
2023/06/02 10:04:37;;;;;;;12.77;2.95;;;15.80;99.90;;;;;;4923723;29;20624;-74
2023/06/02 10:07:25;;;;;;;15.40;3.07;;;15.80;99.90;;;;;;4907734;29;20054;-74
2023/06/02 10:10:16;;;;;;;9.38;3.08;;;15.90;99.90;;;;;;4936761;29;20047;-74
2023/06/02 10:12:54;;;;;;;14.32;3.38;;;15.90;99.90;;;;;;4918572;29;20043;-75
2023/06/02 10:15:44;;;;;;;11.77;3.40;;;16.00;99.90;;;;;;4940376;29;20046;-74
2023/06/02 10:18:18;;;;;;;11.60;3.55;;;16.10;99.90;;;;;;4915188;29;20051;-74
2023/06/02 10:21:15;;;;;;;15.10;3.25;;;16.10;99.90;;;;;;4939126;29;20473;-74
2023/06/02 10:24:12;;;;;;;18.63;4.10;;;16.10;99.90;;;;;;4934972;29;20048;-73
2023/06/02 10:26:42;;;;;;;11.27;2.87;;;16.20;99.90;;;;;;4926806;29;20051;-73
2023/06/02 10:29:08;;;;;;;8.75;2.72;;;16.30;99.90;;;;;;4933245;29;20055;-74
2023/06/02 10:31:34;;;;;;;9.52;2.85;;;16.30;99.90;;;;;;4923870;29;20083;-75
2023/06/02 10:34:00;;;;;;;14.30;3.88;;;16.40;99.90;;;;;;4922395;29;20044;-74
2023/06/02 10:37:05;;;;;;;10.25;3.28;;;16.40;99.90;;;;;;4911601;29;20353;-74
2023/06/02 10:39:40;;;;;;;14.10;3.53;;;16.40;99.90;;;;;;4892439;29;20130;-74
2023/06/02 10:42:12;;;;;;;12.57;3.42;;;16.50;99.90;;;;;;4923183;29;20444;-75
2023/06/02 10:44:38;;;;;;;11.15;3.13;;;16.60;99.90;;;;;;4919802;29;20059;-75
2023/06/02 10:47:19;;;;;;;9.75;3.53;;;16.80;99.90;;;;;;4938194;29;20528;-75
2023/06/02 10:49:58;;;;;;;18.38;3.30;;;16.80;99.80;;;;;;4936116;29;20381;-75
2023/06/02 10:52:30;;;;;;;15.45;3.60;;;16.80;99.80;;;;;;4935203;29;20047;-75
2023/06/02 10:55:07;;;;;;;13.02;3.30;;;17.10;99.90;;;;;;4935343;29;20051;-76
2023/06/02 10:57:58;;;;;;;7.65;2.95;;;17.20;98.90;;;;;;4938721;29;20052;-74
2023/06/02 11:00:36;;;;;;;9.88;2.90;;;17.20;98.90;;;;;;4925392;29;20071;-75
2023/06/02 11:03:05;;;;;;;10.35;3.35;;;17.20;98.80;;;;;;4935319;29;20481;-75
2023/06/02 11:05:34;;;;;;;10.75;3.17;;;17.20;98.80;;;;;;4937269;29;20071;-74
2023/06/02 11:08:15;;;;;;;10.85;2.80;;;17.20;98.90;;;;;;4906319;29;20570;-75
2023/06/02 11:10:41;;;;;;;10.57;3.13;;;17.20;99.10;;;;;;4937743;29;20079;-74
2023/06/02 11:13:08;;;;;;;11.98;3.55;;;17.10;99.10;;;;;;4921779;29;20047;-75
2023/06/02 11:15:34;;;;;;;13.25;3.65;;;17.10;99.10;;;;;;4922421;29;20051;-74
2023/06/02 11:18:01;;;;;;;15.88;3.25;;;17.20;98.90;;;;;;4906543;29;20039;-75
2023/06/02 11:20:37;;;;;;;12.18;3.13;;;17.30;99.10;;;;;;4908973;29;20099;-76
2023/06/02 11:23:05;;;;;;;12.10;3.05;;;17.60;99.00;;;;;;4922394;29;20051;-76
2023/06/02 11:25:30;;;;;;;12.90;3.47;;;17.70;98.80;;;;;;4942202;29;20051;-75
2023/06/02 11:27:57;;;;;;;12.77;3.38;;;18.00;98.40;;;;;;4902524;29;20520;-75
2023/06/02 11:30:23;;;;;;;14.02;3.65;;;18.10;98.50;;;;;;4925081;29;20048;-76
2023/06/02 11:32:49;;;;;;;16.92;3.75;;;18.20;97.70;;;;;;4887052;29;20071;-75
2023/06/02 11:35:23;;;;;;;12.65;3.58;;;18.10;96.40;;;;;;4916135;29;20047;-75
2023/06/02 11:38:06;;;;;;;13.57;3.47;;;18.00;97.30;;;;;;4937145;29;20047;-75
2023/06/02 11:40:33;;;;;;;14.18;2.90;;;18.40;97.00;;;;;;4918135;29;20043;-76
2023/06/02 11:42:59;;;;;;;12.48;3.40;;;18.50;96.60;;;;;;4924167;29;20047;-76
2023/06/02 11:45:27;;;;;;;11.68;3.25;;;18.50;95.90;;;;;;4921307;29;20051;-75
2023/06/02 11:48:01;;;;;;;11.93;3.00;;;18.50;95.50;;;;;;4933162;29;20051;-75
2023/06/02 11:50:28;;;;;;;10.82;3.45;;;18.40;96.50;;;;;;4899135;29;20063;-75
2023/06/02 11:52:55;;;;;;;9.15;3.00;;;18.50;96.80;;;;;;4908928;29;20048;-75
2023/06/02 11:55:20;;;;;;;13.43;3.10;;;18.50;96.60;;;;;;4919560;29;20047;-76
2023/06/02 11:57:47;;;;;;;9.68;3.60;;;18.40;96.10;;;;;;4916609;29;20048;-75
2023/06/02 12:00:19;;;;;;;10.80;3.00;;;18.30;96.50;;;;;;4922175;29;20051;-75
2023/06/02 12:02:51;;;;;;;10.95;3.25;;;18.30;96.60;;;;;;4938469;29;20364;-76
2023/06/02 12:05:36;;;;;;;11.52;2.95;;;18.30;96.50;;;;;;4924506;29;20050;-76
2023/06/02 12:08:34;;;;;;;18.85;3.80;;;18.40;96.20;;;;;;4924334;29;20369;-75
2023/06/02 12:11:00;;;;;;;14.63;3.35;;;18.50;96.00;;;;;;4928397;29;20058;-75
2023/06/02 12:13:29;;;;;;;14.55;3.22;;;18.60;96.50;;;;;;4934180;29;20086;-75
2023/06/02 12:16:20;;;;;;;14.93;3.45;;;18.80;96.50;;;;;;4918386;29;20054;-75
2023/06/02 12:18:46;;;;;;;11.80;3.88;;;18.80;96.20;;;;;;4904991;29;20054;-75
2023/06/02 12:21:26;;;;;;;17.25;3.70;;;18.50;95.10;;;;;;4919079;29;20383;-74
2023/06/02 12:23:54;;;;;;;12.02;2.85;;;18.00;95.60;;;;;;4933829;29;20051;-74
2023/06/02 12:26:20;;;;;;;8.88;3.40;;;18.20;96.20;;;;;;4936523;29;20043;-75
2023/06/02 12:28:46;;;;;;;10.95;3.00;;;18.40;96.20;;;;;;4936067;29;20064;-75
2023/06/02 12:31:11;;;;;;;15.90;3.50;;;18.40;95.90;;;;;;4921494;29;20048;-75
2023/06/02 12:33:40;;;;;;;10.98;3.10;;;18.50;95.90;;;;;;4938179;29;20473;-77
2023/06/02 12:36:07;;;;;;;14.30;3.85;;;18.40;96.20;;;;;;4913873;29;21029;-75
2023/06/02 12:38:34;;;;;;;9.15;2.60;;;18.50;96.00;;;;;;4920634;29;20088;-75
2023/06/02 12:41:00;;;;;;;8.48;2.80;;;18.40;96.00;;;;;;4932964;29;20052;-75
2023/06/02 12:43:26;;;;;;;11.45;2.83;;;18.50;96.30;;;;;;4903549;29;20456;-75